Terminal Aerodrome Forecast
Issued by NWS

Home | Current Version | Previous Version | Text Only | Print | Product List | Glossary On
Versions: 1 2 3 4 5 6 7 8 9 10 11 12
000
FTUS46 KPDT 061729
TAFRDM
TAF
KRDM 061729Z 0618/0718 33008KT P6SM FEW120 SCT250
     FM062300 32012G18KT P6SM VCSH SCT100 BKN180
     FM070500 VRB05KT P6SM FEW100 SCT250
     FM071000 16004KT P6SM SCT250=

USA.gov is the U.S. government's official web portal to all federal, state and local government web resources and services.